FAOR Airport Information

Runway Information
Airport Frequencies
Airport Navaids
Airport Weather Information & NOTAM
ADDS - METARS form results

(1043 UTC 30 July 2021)
Data provider http://aviationweather.gov/metar/data/
 
METAR text: FAOR 301030Z 35006KT 300V030 CAVOK 17/M05 Q1035 NOSIG
Conditions at: FAOR (JOHANNESBURG/TAM, ZA) observed 1030 UTC 30 July 2021
Temperature: 17.0°C (63°F)
Dewpoint: -5.0°C (23°F) [RH = 22%]
Pressure (altimeter): 30.56 inches Hg (1035.0 mb)
Winds: from the N (350 degrees) at 7 MPH (6 knots; 3.1 m/s)
Visibility: 6 or more miles (10+ km)
Ceiling: ceiling and visibility are OK
Clouds: unknown
Weather: no significant weather observed at this time

METAR text: FAOR 301000Z 04007KT 350V080 CAVOK 17/M05 Q1036 NOSIG
Conditions at: FAOR (JOHANNESBURG/TAM, ZA) observed 1000 UTC 30 July 2021
Temperature: 17.0°C (63°F)
Dewpoint: -5.0°C (23°F) [RH = 22%]
Pressure (altimeter): 30.59 inches Hg (1036.0 mb)
Winds: from the NE (40 degrees) at 8 MPH (7 knots; 3.6 m/s)
Visibility: 6 or more miles (10+ km)
Ceiling: ceiling and visibility are OK
Clouds: unknown
Weather: no significant weather observed at this time

Forecast for: FAOR (JOHANNESBURG/TAM, ZA)
Text: TAF FAOR 301000Z 3012/3118 VRB03KT CAVOK TX19/3012Z TN05/3105Z
Forecast period: 1200 UTC 30 July 2021 to 1800 UTC 31 July 2021
Forecast type: FROM: standard forecast or significant change
Winds: variable direction winds at 3 MPH (3 knots; 1.5 m/s)
Visibility: 6 or more miles (10+ km)
Ceiling: unknown
Clouds: missing
Weather: no significant weather forecast for this period
Text: PROB30
Forecast period: 0300 to 0500 UTC 31 July 2021
Forecast type: TEMPORARY: The following changes expected for less than half the time period
Visibility: 3 miles (5 km)
Ceiling: unknown
Clouds: missing
Weather: BR  (mist)